sensor_id;sensor_type;location;lat;lon;timestamp;temperature;humidity
80258;DHT22;69565;37.974;23.708;2023-10-13T00:00:27;24.10;36.90
80258;DHT22;69565;37.974;23.708;2023-10-13T00:02:58;24.10;37.00
80258;DHT22;69565;37.974;23.708;2023-10-13T00:05:31;24.10;37.00
80258;DHT22;69565;37.974;23.708;2023-10-13T00:07:59;24.10;37.10
80258;DHT22;69565;37.974;23.708;2023-10-13T00:10:29;24.10;37.10
80258;DHT22;69565;37.974;23.708;2023-10-13T00:12:55;24.10;37.10
80258;DHT22;69565;37.974;23.708;2023-10-13T00:15:32;24.10;37.10
80258;DHT22;69565;37.974;23.708;2023-10-13T00:18:06;24.10;37.10
80258;DHT22;69565;37.974;23.708;2023-10-13T00:20:39;24.10;37.10
80258;DHT22;69565;37.974;23.708;2023-10-13T00:23:05;24.10;37.20
80258;DHT22;69565;37.974;23.708;2023-10-13T00:25:31;24.10;37.10
80258;DHT22;69565;37.974;23.708;2023-10-13T00:28:05;24.10;37.20
80258;DHT22;69565;37.974;23.708;2023-10-13T00:30:34;24.10;37.20
80258;DHT22;69565;37.974;23.708;2023-10-13T00:33:00;24.00;37.20
80258;DHT22;69565;37.974;23.708;2023-10-13T00:35:27;24.00;37.20
80258;DHT22;69565;37.974;23.708;2023-10-13T00:38:02;24.00;37.30
80258;DHT22;69565;37.974;23.708;2023-10-13T00:40:43;24.00;37.20
80258;DHT22;69565;37.974;23.708;2023-10-13T00:43:22;24.00;37.30
80258;DHT22;69565;37.974;23.708;2023-10-13T00:45:59;24.00;37.30
80258;DHT22;69565;37.974;23.708;2023-10-13T00:48:30;24.00;37.30
80258;DHT22;69565;37.974;23.708;2023-10-13T00:51:08;24.00;37.30
80258;DHT22;69565;37.974;23.708;2023-10-13T00:53:39;24.00;37.30
80258;DHT22;69565;37.974;23.708;2023-10-13T00:56:06;24.00;37.30
80258;DHT22;69565;37.974;23.708;2023-10-13T00:58:36;24.00;37.30
80258;DHT22;69565;37.974;23.708;2023-10-13T01:01:05;24.00;37.30
80258;DHT22;69565;37.974;23.708;2023-10-13T01:03:51;24.00;37.30
80258;DHT22;69565;37.974;23.708;2023-10-13T01:06:21;24.00;37.40
80258;DHT22;69565;37.974;23.708;2023-10-13T01:09:01;23.90;37.30
80258;DHT22;69565;37.974;23.708;2023-10-13T01:11:43;24.00;37.50
80258;DHT22;69565;37.974;23.708;2023-10-13T01:14:11;24.00;37.50
80258;DHT22;69565;37.974;23.708;2023-10-13T01:16:38;23.90;38.50
80258;DHT22;69565;37.974;23.708;2023-10-13T01:19:10;23.90;37.40
80258;DHT22;69565;37.974;23.708;2023-10-13T01:21:38;23.90;37.40
80258;DHT22;69565;37.974;23.708;2023-10-13T01:24:06;23.90;37.50
80258;DHT22;69565;37.974;23.708;2023-10-13T01:26:34;23.90;37.50
80258;DHT22;69565;37.974;23.708;2023-10-13T01:29:05;23.90;37.50
80258;DHT22;69565;37.974;23.708;2023-10-13T01:31:53;23.90;37.50
80258;DHT22;69565;37.974;23.708;2023-10-13T01:34:19;23.90;37.60
80258;DHT22;69565;37.974;23.708;2023-10-13T01:36:54;23.90;37.60
80258;DHT22;69565;37.974;23.708;2023-10-13T01:39:25;23.90;37.60
80258;DHT22;69565;37.974;23.708;2023-10-13T01:41:57;23.90;37.60
80258;DHT22;69565;37.974;23.708;2023-10-13T01:44:24;23.90;37.60
80258;DHT22;69565;37.974;23.708;2023-10-13T01:46:50;23.90;37.60
80258;DHT22;69565;37.974;23.708;2023-10-13T01:49:16;23.90;37.60
80258;DHT22;69565;37.974;23.708;2023-10-13T01:51:42;23.90;37.60
80258;DHT22;69565;37.974;23.708;2023-10-13T01:54:08;23.90;37.60
80258;DHT22;69565;37.974;23.708;2023-10-13T01:56:38;23.90;37.60
80258;DHT22;69565;37.974;23.708;2023-10-13T01:59:12;23.90;37.60
80258;DHT22;69565;37.974;23.708;2023-10-13T02:01:38;23.90;37.60
80258;DHT22;69565;37.974;23.708;2023-10-13T02:04:05;23.80;37.60
80258;DHT22;69565;37.974;23.708;2023-10-13T02:06:33;23.80;37.60
80258;DHT22;69565;37.974;23.708;2023-10-13T02:09:06;23.80;38.80
80258;DHT22;69565;37.974;23.708;2023-10-13T02:11:52;23.80;37.80
80258;DHT22;69565;37.974;23.708;2023-10-13T02:14:22;23.80;37.80
80258;DHT22;69565;37.974;23.708;2023-10-13T02:16:51;23.80;37.80
80258;DHT22;69565;37.974;23.708;2023-10-13T02:19:22;23.80;37.80
80258;DHT22;69565;37.974;23.708;2023-10-13T02:21:52;23.80;37.80
80258;DHT22;69565;37.974;23.708;2023-10-13T02:24:24;23.80;37.80
80258;DHT22;69565;37.974;23.708;2023-10-13T02:26:56;23.80;37.90
80258;DHT22;69565;37.974;23.708;2023-10-13T02:29:28;23.80;37.80
80258;DHT22;69565;37.974;23.708;2023-10-13T02:31:54;23.70;37.80
80258;DHT22;69565;37.974;23.708;2023-10-13T02:34:21;23.80;37.90
80258;DHT22;69565;37.974;23.708;2023-10-13T02:36:48;23.80;37.90
80258;DHT22;69565;37.974;23.708;2023-10-13T02:39:18;23.80;37.90
80258;DHT22;69565;37.974;23.708;2023-10-13T02:41:54;23.70;38.00
80258;DHT22;69565;37.974;23.708;2023-10-13T02:44:21;23.80;38.00
80258;DHT22;69565;37.974;23.708;2023-10-13T02:46:56;23.80;37.90
80258;DHT22;69565;37.974;23.708;2023-10-13T02:49:31;23.70;37.90
80258;DHT22;69565;37.974;23.708;2023-10-13T02:52:00;23.70;37.90
80258;DHT22;69565;37.974;23.708;2023-10-13T02:54:33;23.70;37.90
80258;DHT22;69565;37.974;23.708;2023-10-13T02:57:05;23.70;37.90
80258;DHT22;69565;37.974;23.708;2023-10-13T02:59:32;23.70;37.90
80258;DHT22;69565;37.974;23.708;2023-10-13T03:02:06;23.70;38.00
80258;DHT22;69565;37.974;23.708;2023-10-13T03:04:53;23.70;38.00
80258;DHT22;69565;37.974;23.708;2023-10-13T03:07:26;23.70;38.00
80258;DHT22;69565;37.974;23.708;2023-10-13T03:09:55;23.70;38.10
80258;DHT22;69565;37.974;23.708;2023-10-13T03:12:23;23.70;38.10
80258;DHT22;69565;37.974;23.708;2023-10-13T03:14:59;23.70;38.10
80258;DHT22;69565;37.974;23.708;2023-10-13T03:17:36;23.70;38.10
80258;DHT22;69565;37.974;23.708;2023-10-13T03:20:06;23.70;38.10
80258;DHT22;69565;37.974;23.708;2023-10-13T03:22:32;23.70;38.10
80258;DHT22;69565;37.974;23.708;2023-10-13T03:24:59;23.70;38.10
80258;DHT22;69565;37.974;23.708;2023-10-13T03:27:34;23.70;38.20
80258;DHT22;69565;37.974;23.708;2023-10-13T03:30:26;23.70;38.20
80258;DHT22;69565;37.974;23.708;2023-10-13T03:33:04;23.60;38.10
80258;DHT22;69565;37.974;23.708;2023-10-13T03:35:35;23.60;38.20
80258;DHT22;69565;37.974;23.708;2023-10-13T03:38:10;23.60;38.20
80258;DHT22;69565;37.974;23.708;2023-10-13T03:40:45;23.60;38.20
80258;DHT22;69565;37.974;23.708;2023-10-13T03:43:15;23.60;38.30
80258;DHT22;69565;37.974;23.708;2023-10-13T03:45:48;23.60;38.30
80258;DHT22;69565;37.974;23.708;2023-10-13T03:48:19;23.70;38.40
80258;DHT22;69565;37.974;23.708;2023-10-13T03:51:09;23.60;38.30
80258;DHT22;69565;37.974;23.708;2023-10-13T03:53:42;23.70;38.40
80258;DHT22;69565;37.974;23.708;2023-10-13T03:56:27;23.70;38.40
80258;DHT22;69565;37.974;23.708;2023-10-13T03:59:04;23.60;38.30
80258;DHT22;69565;37.974;23.708;2023-10-13T04:01:36;23.60;38.30
80258;DHT22;69565;37.974;23.708;2023-10-13T04:04:13;23.60;38.40
80258;DHT22;69565;37.974;23.708;2023-10-13T04:06:44;23.60;38.40
80258;DHT22;69565;37.974;23.708;2023-10-13T04:09:16;23.60;38.50
80258;DHT22;69565;37.974;23.708;2023-10-13T04:11:57;23.60;38.50
80258;DHT22;69565;37.974;23.708;2023-10-13T04:14:33;23.60;38.50
80258;DHT22;69565;37.974;23.708;2023-10-13T04:17:18;23.60;38.50
80258;DHT22;69565;37.974;23.708;2023-10-13T04:19:53;23.60;38.60
80258;DHT22;69565;37.974;23.708;2023-10-13T04:25:16;23.50;38.60
80258;DHT22;69565;37.974;23.708;2023-10-13T04:28:02;23.50;38.70
80258;DHT22;69565;37.974;23.708;2023-10-13T04:30:49;23.50;38.70
80258;DHT22;69565;37.974;23.708;2023-10-13T04:33:19;23.50;39.10
80258;DHT22;69565;37.974;23.708;2023-10-13T04:36:09;23.50;39.60
80258;DHT22;69565;37.974;23.708;2023-10-13T04:38:55;23.60;40.50
80258;DHT22;69565;37.974;23.708;2023-10-13T04:41:27;23.60;41.70
80258;DHT22;69565;37.974;23.708;2023-10-13T04:44:22;23.60;42.40
80258;DHT22;69565;37.974;23.708;2023-10-13T04:47:06;23.60;42.40
80258;DHT22;69565;37.974;23.708;2023-10-13T04:49:39;23.60;42.40
80258;DHT22;69565;37.974;23.708;2023-10-13T04:52:06;23.60;42.40
80258;DHT22;69565;37.974;23.708;2023-10-13T04:54:43;23.60;42.20
80258;DHT22;69565;37.974;23.708;2023-10-13T04:57:20;23.50;41.60
80258;DHT22;69565;37.974;23.708;2023-10-13T04:59:47;23.50;41.00
80258;DHT22;69565;37.974;23.708;2023-10-13T05:02:33;23.50;40.50
80258;DHT22;69565;37.974;23.708;2023-10-13T05:05:02;23.40;39.80
80258;DHT22;69565;37.974;23.708;2023-10-13T05:07:31;23.40;39.40
80258;DHT22;69565;37.974;23.708;2023-10-13T05:10:16;23.40;39.20
80258;DHT22;69565;37.974;23.708;2023-10-13T05:13:01;23.40;38.50
80258;DHT22;69565;37.974;23.708;2023-10-13T05:15:49;23.50;38.20
80258;DHT22;69565;37.974;23.708;2023-10-13T05:18:34;23.50;37.70
80258;DHT22;69565;37.974;23.708;2023-10-13T05:21:18;23.50;37.40
80258;DHT22;69565;37.974;23.708;2023-10-13T05:24:04;23.50;37.10
80258;DHT22;69565;37.974;23.708;2023-10-13T05:26:48;23.50;36.80
80258;DHT22;69565;37.974;23.708;2023-10-13T05:29:33;23.60;36.60
80258;DHT22;69565;37.974;23.708;2023-10-13T05:32:18;23.60;36.40
80258;DHT22;69565;37.974;23.708;2023-10-13T05:35:02;23.70;36.30
80258;DHT22;69565;37.974;23.708;2023-10-13T05:37:46;23.70;36.20
80258;DHT22;69565;37.974;23.708;2023-10-13T05:40:31;23.80;36.10
80258;DHT22;69565;37.974;23.708;2023-10-13T05:43:15;23.80;35.90
80258;DHT22;69565;37.974;23.708;2023-10-13T05:46:04;23.80;35.70
80258;DHT22;69565;37.974;23.708;2023-10-13T05:48:48;23.80;35.60
80258;DHT22;69565;37.974;23.708;2023-10-13T05:51:24;23.80;35.50
80258;DHT22;69565;37.974;23.708;2023-10-13T05:54:02;23.90;35.50
80258;DHT22;69565;37.974;23.708;2023-10-13T05:56:48;23.90;35.30
80258;DHT22;69565;37.974;23.708;2023-10-13T05:59:35;24.00;35.30
80258;DHT22;69565;37.974;23.708;2023-10-13T06:02:21;24.00;35.20
80258;DHT22;69565;37.974;23.708;2023-10-13T06:05:10;24.00;35.10
80258;DHT22;69565;37.974;23.708;2023-10-13T06:07:55;24.00;35.00
80258;DHT22;69565;37.974;23.708;2023-10-13T06:10:40;24.10;35.00
80258;DHT22;69565;37.974;23.708;2023-10-13T06:13:24;24.10;34.90
80258;DHT22;69565;37.974;23.708;2023-10-13T06:16:15;24.10;34.90
80258;DHT22;69565;37.974;23.708;2023-10-13T06:18:59;24.20;34.90
80258;DHT22;69565;37.974;23.708;2023-10-13T06:21:44;24.20;34.70
80258;DHT22;69565;37.974;23.708;2023-10-13T06:24:29;24.20;34.60
80258;DHT22;69565;37.974;23.708;2023-10-13T06:27:14;24.30;34.60
80258;DHT22;69565;37.974;23.708;2023-10-13T06:29:59;24.30;34.50
80258;DHT22;69565;37.974;23.708;2023-10-13T06:32:27;24.30;34.40
80258;DHT22;69565;37.974;23.708;2023-10-13T06:34:56;24.30;34.30
80258;DHT22;69565;37.974;23.708;2023-10-13T06:37:24;24.40;34.30
80258;DHT22;69565;37.974;23.708;2023-10-13T06:39:59;24.40;34.20
80258;DHT22;69565;37.974;23.708;2023-10-13T06:42:32;24.40;34.20
80258;DHT22;69565;37.974;23.708;2023-10-13T06:45:00;24.50;34.20
80258;DHT22;69565;37.974;23.708;2023-10-13T06:47:36;24.40;34.00
80258;DHT22;69565;37.974;23.708;2023-10-13T06:50:09;24.50;33.90
80258;DHT22;69565;37.974;23.708;2023-10-13T06:52:50;24.50;33.90
80258;DHT22;69565;37.974;23.708;2023-10-13T06:55:16;24.50;33.80
80258;DHT22;69565;37.974;23.708;2023-10-13T06:57:55;24.50;33.90
80258;DHT22;69565;37.974;23.708;2023-10-13T07:00:26;24.50;33.80
80258;DHT22;69565;37.974;23.708;2023-10-13T07:03:04;24.50;33.80
80258;DHT22;69565;37.974;23.708;2023-10-13T07:05:40;24.50;33.80
80258;DHT22;69565;37.974;23.708;2023-10-13T07:08:07;24.60;33.80
80258;DHT22;69565;37.974;23.708;2023-10-13T07:10:34;24.60;33.70
80258;DHT22;69565;37.974;23.708;2023-10-13T07:13:18;24.60;33.60
80258;DHT22;69565;37.974;23.708;2023-10-13T07:15:45;24.70;33.60
80258;DHT22;69565;37.974;23.708;2023-10-13T07:18:15;24.70;33.50
80258;DHT22;69565;37.974;23.708;2023-10-13T07:20:43;24.70;33.50
80258;DHT22;69565;37.974;23.708;2023-10-13T07:23:13;24.70;34.50
80258;DHT22;69565;37.974;23.708;2023-10-13T07:25:56;24.70;33.40
80258;DHT22;69565;37.974;23.708;2023-10-13T07:28:31;24.70;33.30
80258;DHT22;69565;37.974;23.708;2023-10-13T07:31:02;24.80;33.30
80258;DHT22;69565;37.974;23.708;2023-10-13T07:33:28;24.80;33.30
80258;DHT22;69565;37.974;23.708;2023-10-13T07:36:05;24.80;33.20
80258;DHT22;69565;37.974;23.708;2023-10-13T07:38:53;24.80;33.30
80258;DHT22;69565;37.974;23.708;2023-10-13T07:41:36;24.80;33.20
80258;DHT22;69565;37.974;23.708;2023-10-13T07:44:02;24.80;33.10
80258;DHT22;69565;37.974;23.708;2023-10-13T07:46:30;24.80;33.00
80258;DHT22;69565;37.974;23.708;2023-10-13T07:49:00;24.80;33.00
80258;DHT22;69565;37.974;23.708;2023-10-13T07:51:35;24.90;32.80
80258;DHT22;69565;37.974;23.708;2023-10-13T07:54:13;24.90;32.70
80258;DHT22;69565;37.974;23.708;2023-10-13T07:56:47;24.90;32.70
80258;DHT22;69565;37.974;23.708;2023-10-13T07:59:13;24.90;32.60
80258;DHT22;69565;37.974;23.708;2023-10-13T08:01:42;24.90;32.50
80258;DHT22;69565;37.974;23.708;2023-10-13T08:04:11;24.90;32.50
80258;DHT22;69565;37.974;23.708;2023-10-13T08:06:40;24.90;32.40
80258;DHT22;69565;37.974;23.708;2023-10-13T08:09:07;24.90;32.30
80258;DHT22;69565;37.974;23.708;2023-10-13T08:11:35;24.90;32.20
80258;DHT22;69565;37.974;23.708;2023-10-13T08:14:03;25.00;32.20
80258;DHT22;69565;37.974;23.708;2023-10-13T08:16:39;25.00;32.10
80258;DHT22;69565;37.974;23.708;2023-10-13T08:19:15;25.00;32.00
80258;DHT22;69565;37.974;23.708;2023-10-13T08:21:45;25.00;31.80
80258;DHT22;69565;37.974;23.708;2023-10-13T08:24:20;25.00;31.60
80258;DHT22;69565;37.974;23.708;2023-10-13T08:26:55;25.00;31.50
80258;DHT22;69565;37.974;23.708;2023-10-13T08:29:43;25.00;31.50
80258;DHT22;69565;37.974;23.708;2023-10-13T08:32:34;25.00;31.30
80258;DHT22;69565;37.974;23.708;2023-10-13T08:35:20;25.00;32.30
80258;DHT22;69565;37.974;23.708;2023-10-13T08:37:55;25.00;31.20
80258;DHT22;69565;37.974;23.708;2023-10-13T08:40:27;25.00;31.20
80258;DHT22;69565;37.974;23.708;2023-10-13T08:43:12;25.00;31.20
80258;DHT22;69565;37.974;23.708;2023-10-13T08:45:42;25.00;31.20
80258;DHT22;69565;37.974;23.708;2023-10-13T08:48:10;25.00;31.10
80258;DHT22;69565;37.974;23.708;2023-10-13T08:53:29;25.00;31.10
80258;DHT22;69565;37.974;23.708;2023-10-13T08:56:11;25.10;31.20
80258;DHT22;69565;37.974;23.708;2023-10-13T08:58:47;25.00;31.00
80258;DHT22;69565;37.974;23.708;2023-10-13T09:01:27;25.00;31.10
80258;DHT22;69565;37.974;23.708;2023-10-13T09:04:13;25.10;31.20
80258;DHT22;69565;37.974;23.708;2023-10-13T09:12:15;25.00;31.00
80258;DHT22;69565;37.974;23.708;2023-10-13T09:14:52;25.00;31.10
80258;DHT22;69565;37.974;23.708;2023-10-13T09:17:56;25.00;30.90
80258;DHT22;69565;37.974;23.708;2023-10-13T09:20:40;25.10;31.00
80258;DHT22;69565;37.974;23.708;2023-10-13T09:23:10;25.10;31.00
80258;DHT22;69565;37.974;23.708;2023-10-13T09:25:39;25.10;31.10
80258;DHT22;69565;37.974;23.708;2023-10-13T09:28:19;25.10;31.20
80258;DHT22;69565;37.974;23.708;2023-10-13T09:30:52;25.10;31.30
80258;DHT22;69565;37.974;23.708;2023-10-13T09:33:23;25.00;32.30
80258;DHT22;69565;37.974;23.708;2023-10-13T09:36:15;24.90;31.20
80258;DHT22;69565;37.974;23.708;2023-10-13T09:38:42;24.90;31.40
80258;DHT22;69565;37.974;23.708;2023-10-13T09:41:27;24.90;31.40
80258;DHT22;69565;37.974;23.708;2023-10-13T09:43:55;25.00;31.30
80258;DHT22;69565;37.974;23.708;2023-10-13T09:46:26;25.00;31.10
80258;DHT22;69565;37.974;23.708;2023-10-13T09:49:10;25.00;31.00
80258;DHT22;69565;37.974;23.708;2023-10-13T09:51:42;25.10;31.10
80258;DHT22;69565;37.974;23.708;2023-10-13T09:54:37;25.10;31.00
80258;DHT22;69565;37.974;23.708;2023-10-13T09:57:17;25.10;30.90
80258;DHT22;69565;37.974;23.708;2023-10-13T09:59:51;25.10;31.00
80258;DHT22;69565;37.974;23.708;2023-10-13T10:02:18;25.10;30.90
80258;DHT22;69565;37.974;23.708;2023-10-13T10:04:55;25.10;30.90
80258;DHT22;69565;37.974;23.708;2023-10-13T10:07:36;25.10;31.10
80258;DHT22;69565;37.974;23.708;2023-10-13T10:10:05;25.20;31.20
80258;DHT22;69565;37.974;23.708;2023-10-13T10:13:21;25.10;31.30
80258;DHT22;69565;37.974;23.708;2023-10-13T10:15:34;25.10;32.60
80258;DHT22;69565;37.974;23.708;2023-10-13T10:18:02;25.10;31.70
80258;DHT22;69565;37.974;23.708;2023-10-13T10:20:34;25.20;32.00
80258;DHT22;69565;37.974;23.708;2023-10-13T10:23:12;25.10;32.30
80258;DHT22;69565;37.974;23.708;2023-10-13T10:25:49;25.10;32.60
80258;DHT22;69565;37.974;23.708;2023-10-13T10:28:17;25.10;33.10
80258;DHT22;69565;37.974;23.708;2023-10-13T10:30:44;25.10;33.20
80258;DHT22;69565;37.974;23.708;2023-10-13T10:33:12;25.10;33.40
80258;DHT22;69565;37.974;23.708;2023-10-13T10:35:40;25.10;33.60
80258;DHT22;69565;37.974;23.708;2023-10-13T10:40:58;25.20;34.30
80258;DHT22;69565;37.974;23.708;2023-10-13T10:43:37;25.20;34.60
80258;DHT22;69565;37.974;23.708;2023-10-13T10:46:26;25.20;35.10
80258;DHT22;69565;37.974;23.708;2023-10-13T10:48:55;25.20;35.50
80258;DHT22;69565;37.974;23.708;2023-10-13T10:51:28;25.20;35.70
80258;DHT22;69565;37.974;23.708;2023-10-13T10:53:58;25.20;35.90
80258;DHT22;69565;37.974;23.708;2023-10-13T10:56:37;25.20;36.10
80258;DHT22;69565;37.974;23.708;2023-10-13T10:59:04;25.10;36.60
80258;DHT22;69565;37.974;23.708;2023-10-13T11:01:32;25.20;37.20
80258;DHT22;69565;37.974;23.708;2023-10-13T11:04:06;25.30;37.90
80258;DHT22;69565;37.974;23.708;2023-10-13T11:07:00;25.20;38.00
80258;DHT22;69565;37.974;23.708;2023-10-13T11:11:53;25.30;38.30
80258;DHT22;69565;37.974;23.708;2023-10-13T11:14:28;25.30;38.50
80258;DHT22;69565;37.974;23.708;2023-10-13T11:16:56;25.30;39.60
80258;DHT22;69565;37.974;23.708;2023-10-13T11:19:42;25.30;38.70
80258;DHT22;69565;37.974;23.708;2023-10-13T11:22:19;25.40;39.00
80258;DHT22;69565;37.974;23.708;2023-10-13T11:25:08;25.40;39.10
80258;DHT22;69565;37.974;23.708;2023-10-13T11:27:38;25.40;39.20
80258;DHT22;69565;37.974;23.708;2023-10-13T11:30:18;25.40;39.30
80258;DHT22;69565;37.974;23.708;2023-10-13T11:33:23;25.40;39.40
80258;DHT22;69565;37.974;23.708;2023-10-13T11:35:49;25.30;39.50
80258;DHT22;69565;37.974;23.708;2023-10-13T11:40:55;25.30;39.70
80258;DHT22;69565;37.974;23.708;2023-10-13T11:43:47;25.30;39.80
80258;DHT22;69565;37.974;23.708;2023-10-13T11:46:23;25.30;39.90
80258;DHT22;69565;37.974;23.708;2023-10-13T11:49:04;25.30;39.90
80258;DHT22;69565;37.974;23.708;2023-10-13T11:51:42;25.30;39.90
80258;DHT22;69565;37.974;23.708;2023-10-13T11:54:20;25.30;40.00
80258;DHT22;69565;37.974;23.708;2023-10-13T11:56:48;25.30;40.20
80258;DHT22;69565;37.974;23.708;2023-10-13T11:59:14;25.30;40.30
80258;DHT22;69565;37.974;23.708;2023-10-13T12:01:46;25.30;40.30
80258;DHT22;69565;37.974;23.708;2023-10-13T12:04:31;25.30;40.30
80258;DHT22;69565;37.974;23.708;2023-10-13T12:07:15;25.30;40.20
80258;DHT22;69565;37.974;23.708;2023-10-13T12:09:44;25.30;40.20
80258;DHT22;69565;37.974;23.708;2023-10-13T12:12:22;25.30;40.20
80258;DHT22;69565;37.974;23.708;2023-10-13T12:14:49;25.30;40.20
80258;DHT22;69565;37.974;23.708;2023-10-13T12:17:27;25.30;40.10
80258;DHT22;69565;37.974;23.708;2023-10-13T12:20:06;25.30;40.10
80258;DHT22;69565;37.974;23.708;2023-10-13T12:22:35;25.30;40.00
80258;DHT22;69565;37.974;23.708;2023-10-13T12:25:07;25.40;40.10
80258;DHT22;69565;37.974;23.708;2023-10-13T12:27:54;25.40;39.90
80258;DHT22;69565;37.974;23.708;2023-10-13T12:30:23;25.40;39.90
80258;DHT22;69565;37.974;23.708;2023-10-13T12:33:02;25.40;39.90
80258;DHT22;69565;37.974;23.708;2023-10-13T12:35:39;25.40;40.00
80258;DHT22;69565;37.974;23.708;2023-10-13T12:38:24;25.40;40.00
80258;DHT22;69565;37.974;23.708;2023-10-13T12:41:08;25.40;39.90
80258;DHT22;69565;37.974;23.708;2023-10-13T12:43:52;25.30;39.70
80258;DHT22;69565;37.974;23.708;2023-10-13T12:46:36;25.30;39.70
80258;DHT22;69565;37.974;23.708;2023-10-13T12:49:35;25.30;39.70
80258;DHT22;69565;37.974;23.708;2023-10-13T12:52:07;25.30;39.40
80258;DHT22;69565;37.974;23.708;2023-10-13T12:54:42;25.30;39.30
80258;DHT22;69565;37.974;23.708;2023-10-13T12:57:14;25.20;39.20
80258;DHT22;69565;37.974;23.708;2023-10-13T12:59:39;25.20;39.10
80258;DHT22;69565;37.974;23.708;2023-10-13T13:02:06;25.20;39.20
80258;DHT22;69565;37.974;23.708;2023-10-13T13:04:34;25.20;39.30
80258;DHT22;69565;37.974;23.708;2023-10-13T13:07:02;25.20;39.30
80258;DHT22;69565;37.974;23.708;2023-10-13T13:09:29;25.20;39.30
80258;DHT22;69565;37.974;23.708;2023-10-13T13:11:56;25.20;39.30
80258;DHT22;69565;37.974;23.708;2023-10-13T13:14:25;25.20;39.30
80258;DHT22;69565;37.974;23.708;2023-10-13T13:16:55;25.20;39.30
80258;DHT22;69565;37.974;23.708;2023-10-13T13:19:33;25.20;39.30
80258;DHT22;69565;37.974;23.708;2023-10-13T13:22:05;25.20;39.40
80258;DHT22;69565;37.974;23.708;2023-10-13T13:24:35;25.30;39.40
80258;DHT22;69565;37.974;23.708;2023-10-13T13:27:00;25.30;39.30
80258;DHT22;69565;37.974;23.708;2023-10-13T13:29:46;25.20;39.30
80258;DHT22;69565;37.974;23.708;2023-10-13T13:32:12;25.20;39.40
80258;DHT22;69565;37.974;23.708;2023-10-13T13:34:51;25.30;39.40
80258;DHT22;69565;37.974;23.708;2023-10-13T13:37:33;25.30;39.30
80258;DHT22;69565;37.974;23.708;2023-10-13T13:39:59;25.30;39.40
80258;DHT22;69565;37.974;23.708;2023-10-13T13:42:44;25.30;39.50
80258;DHT22;69565;37.974;23.708;2023-10-13T13:45:14;25.30;39.50
80258;DHT22;69565;37.974;23.708;2023-10-13T13:47:57;25.30;39.70
80258;DHT22;69565;37.974;23.708;2023-10-13T13:50:27;25.20;39.70
80258;DHT22;69565;37.974;23.708;2023-10-13T13:52:56;25.20;39.90
80258;DHT22;69565;37.974;23.708;2023-10-13T13:55:23;25.20;39.90
80258;DHT22;69565;37.974;23.708;2023-10-13T13:57:49;25.20;40.00
80258;DHT22;69565;37.974;23.708;2023-10-13T14:00:17;25.20;40.00
80258;DHT22;69565;37.974;23.708;2023-10-13T14:02:45;25.20;40.20
80258;DHT22;69565;37.974;23.708;2023-10-13T14:05:16;25.30;40.30
80258;DHT22;69565;37.974;23.708;2023-10-13T14:07:46;25.20;40.30
80258;DHT22;69565;37.974;23.708;2023-10-13T14:10:19;25.20;40.40
80258;DHT22;69565;37.974;23.708;2023-10-13T14:13:05;25.20;40.60
80258;DHT22;69565;37.974;23.708;2023-10-13T14:15:40;25.20;40.70
80258;DHT22;69565;37.974;23.708;2023-10-13T14:18:10;25.20;40.70
80258;DHT22;69565;37.974;23.708;2023-10-13T14:20:41;25.30;40.90
80258;DHT22;69565;37.974;23.708;2023-10-13T14:23:08;25.20;40.90
80258;DHT22;69565;37.974;23.708;2023-10-13T14:25:40;25.20;41.00
80258;DHT22;69565;37.974;23.708;2023-10-13T14:28:10;25.20;41.10
80258;DHT22;69565;37.974;23.708;2023-10-13T14:30:40;25.20;41.10
80258;DHT22;69565;37.974;23.708;2023-10-13T14:33:06;25.10;41.10
80258;DHT22;69565;37.974;23.708;2023-10-13T14:35:36;25.10;41.30
80258;DHT22;69565;37.974;23.708;2023-10-13T14:38:02;25.10;41.30
80258;DHT22;69565;37.974;23.708;2023-10-13T14:40:42;25.10;41.30
80258;DHT22;69565;37.974;23.708;2023-10-13T14:43:07;25.10;41.30
80258;DHT22;69565;37.974;23.708;2023-10-13T14:45:35;25.10;41.40
80258;DHT22;69565;37.974;23.708;2023-10-13T14:48:01;25.10;41.40
80258;DHT22;69565;37.974;23.708;2023-10-13T14:50:27;25.10;41.40
80258;DHT22;69565;37.974;23.708;2023-10-13T14:52:53;25.10;41.50
80258;DHT22;69565;37.974;23.708;2023-10-13T14:55:19;25.10;41.60
80258;DHT22;69565;37.974;23.708;2023-10-13T14:57:49;25.10;41.60
80258;DHT22;69565;37.974;23.708;2023-10-13T15:00:16;25.10;41.70
80258;DHT22;69565;37.974;23.708;2023-10-13T15:02:53;25.10;41.70
80258;DHT22;69565;37.974;23.708;2023-10-13T15:05:19;25.10;41.80
80258;DHT22;69565;37.974;23.708;2023-10-13T15:07:45;25.10;41.80
80258;DHT22;69565;37.974;23.708;2023-10-13T15:10:15;25.10;41.90
80258;DHT22;69565;37.974;23.708;2023-10-13T15:12:44;25.00;42.00
80258;DHT22;69565;37.974;23.708;2023-10-13T15:15:10;25.00;41.90
80258;DHT22;69565;37.974;23.708;2023-10-13T15:17:42;25.00;41.90
80258;DHT22;69565;37.974;23.708;2023-10-13T15:20:08;25.00;41.80
80258;DHT22;69565;37.974;23.708;2023-10-13T15:22:36;25.00;41.80
80258;DHT22;69565;37.974;23.708;2023-10-13T15:25:04;25.00;41.70
80258;DHT22;69565;37.974;23.708;2023-10-13T15:27:47;25.00;41.80
80258;DHT22;69565;37.974;23.708;2023-10-13T15:30:24;25.00;41.80
80258;DHT22;69565;37.974;23.708;2023-10-13T15:32:52;25.00;41.80
80258;DHT22;69565;37.974;23.708;2023-10-13T15:35:19;25.00;41.80
80258;DHT22;69565;37.974;23.708;2023-10-13T15:37:45;25.00;41.80
80258;DHT22;69565;37.974;23.708;2023-10-13T15:40:14;25.00;41.80
80258;DHT22;69565;37.974;23.708;2023-10-13T15:42:43;25.00;41.80
80258;DHT22;69565;37.974;23.708;2023-10-13T15:45:11;25.10;41.80
80258;DHT22;69565;37.974;23.708;2023-10-13T15:47:46;25.00;41.70
80258;DHT22;69565;37.974;23.708;2023-10-13T15:50:14;25.10;41.70
80258;DHT22;69565;37.974;23.708;2023-10-13T15:52:44;25.00;41.60
80258;DHT22;69565;37.974;23.708;2023-10-13T15:55:15;25.00;41.50
80258;DHT22;69565;37.974;23.708;2023-10-13T15:57:43;25.00;41.40
80258;DHT22;69565;37.974;23.708;2023-10-13T16:00:10;25.00;41.60
80258;DHT22;69565;37.974;23.708;2023-10-13T16:02:56;25.00;41.50
80258;DHT22;69565;37.974;23.708;2023-10-13T16:05:33;25.00;41.40
80258;DHT22;69565;37.974;23.708;2023-10-13T16:08:03;25.00;41.40
80258;DHT22;69565;37.974;23.708;2023-10-13T16:10:29;25.00;41.40
80258;DHT22;69565;37.974;23.708;2023-10-13T16:12:55;25.00;41.30
80258;DHT22;69565;37.974;23.708;2023-10-13T16:15:24;25.00;41.30
80258;DHT22;69565;37.974;23.708;2023-10-13T16:17:50;24.90;41.10